Time;durP1;ratioP1;P1;durP2;ratioP2;P2;SDS_P1;SDS_P2;PMS_P1;PMS_P2;Temp;Humidity;BMP_temperature;BMP_pressure;BME280_temperature;BME280_humidity;BME280_pressure;Samples;Min_cycle;Max_cycle;Signal;HPM_P1;HPM_P2
2021/08/06 00:00:50;;;;;;;5.57;3.70;;;;;;;;;;5031269;28;20040;-79
2021/08/06 00:03:16;;;;;;;5.47;3.70;;;;;;;;;;5013435;28;20022;-79
2021/08/06 00:05:42;;;;;;;5.00;3.40;;;;;;;;;;5027040;28;20655;-78
2021/08/06 00:08:07;;;;;;;6.35;3.28;;;;;;;;;;5011217;28;20056;-79
2021/08/06 00:10:33;;;;;;;5.55;3.50;;;;;;;;;;5012489;28;20066;-78
2021/08/06 00:12:58;;;;;;;4.45;3.50;;;;;;;;;;5014642;28;20041;-79
2021/08/06 00:15:24;;;;;;;6.53;3.50;;;;;;;;;;5027939;28;20046;-79
2021/08/06 00:17:49;;;;;;;5.32;3.40;;;;;;;;;;5026398;28;20040;-79
2021/08/06 00:20:15;;;;;;;4.40;3.40;;;;;;;;;;5016297;28;20057;-78
2021/08/06 00:22:40;;;;;;;5.88;3.50;;;;;;;;;;5024170;28;20060;-79
2021/08/06 00:25:06;;;;;;;7.05;3.92;;;;;;;;;;4993755;28;20034;-78
2021/08/06 00:27:31;;;;;;;5.13;3.40;;;;;;;;;;5025804;28;20033;-79
2021/08/06 00:29:57;;;;;;;5.80;3.65;;;;;;;;;;5009658;28;21690;-79
2021/08/06 00:32:22;;;;;;;6.45;3.60;;;;;;;;;;5028411;28;20032;-79
2021/08/06 00:34:48;;;;;;;5.05;3.70;;;;;;;;;;5023251;28;20478;-79
2021/08/06 00:37:13;;;;;;;6.50;3.63;;;;;;;;;;5026508;28;20071;-79
2021/08/06 00:39:39;;;;;;;5.70;3.90;;;;;;;;;;5007036;28;20037;-78
2021/08/06 00:42:04;;;;;;;4.40;3.15;;;;;;;;;;5009036;28;20405;-79
2021/08/06 00:44:30;;;;;;;5.50;3.55;;;;;;;;;;5026336;28;20049;-78
2021/08/06 00:46:55;;;;;;;5.10;3.60;;;;;;;;;;5027329;28;20120;-78
2021/08/06 00:49:21;;;;;;;5.43;3.40;;;;;;;;;;5026889;28;20037;-78
2021/08/06 00:51:46;;;;;;;5.25;3.65;;;;;;;;;;5029694;28;20037;-78
2021/08/06 00:54:14;;;;;;;6.10;3.60;;;;;;;;;;5022021;28;20033;-78
2021/08/06 00:56:40;;;;;;;5.07;3.40;;;;;;;;;;5030372;28;20373;-78
2021/08/06 00:59:05;;;;;;;5.95;3.60;;;;;;;;;;5010433;28;20046;-79
2021/08/06 01:01:35;;;;;;;6.20;3.78;;;;;;;;;;5007813;28;21124;-79
2021/08/06 01:04:07;;;;;;;4.75;3.47;;;;;;;;;;5047557;28;20021;-78
2021/08/06 01:06:45;;;;;;;7.03;3.70;;;;;;;;;;5030095;28;20033;-78
2021/08/06 01:09:32;;;;;;;5.63;3.63;;;;;;;;;;5024644;28;20040;-78
2021/08/06 01:12:04;;;;;;;7.25;3.55;;;;;;;;;;5028903;28;20362;-78
2021/08/06 01:14:29;;;;;;;4.35;3.28;;;;;;;;;;5025202;28;20025;-78
2021/08/06 01:16:58;;;;;;;6.53;3.75;;;;;;;;;;5032258;28;20496;-79
2021/08/06 01:19:39;;;;;;;5.28;3.13;;;;;;;;;;5028104;28;20044;-78
2021/08/06 01:22:29;;;;;;;7.13;3.90;;;;;;;;;;5025843;28;20026;-78
2021/08/06 01:25:04;;;;;;;7.63;3.50;;;;;;;;;;5026930;28;20030;-79
2021/08/06 01:27:31;;;;;;;4.82;3.25;;;;;;;;;;5032306;28;20026;-79
2021/08/06 01:29:56;;;;;;;5.15;3.47;;;;;;;;;;5015072;28;20072;-78
2021/08/06 01:32:22;;;;;;;5.55;3.30;;;;;;;;;;5029619;28;20079;-78
2021/08/06 01:34:47;;;;;;;5.38;3.53;;;;;;;;;;5028924;28;20053;-78
2021/08/06 01:37:13;;;;;;;5.63;3.28;;;;;;;;;;5027650;28;20029;-78
2021/08/06 01:39:39;;;;;;;5.40;3.60;;;;;;;;;;5031847;28;20086;-78
2021/08/06 01:42:25;;;;;;;5.15;3.40;;;;;;;;;;5030697;28;20373;-79
2021/08/06 01:44:52;;;;;;;6.43;3.20;;;;;;;;;;5029606;28;20018;-78
2021/08/06 01:47:23;;;;;;;5.55;2.83;;;;;;;;;;5029504;28;20028;-79
2021/08/06 01:49:55;;;;;;;5.10;3.10;;;;;;;;;;5032602;28;20025;-79
2021/08/06 01:52:25;;;;;;;4.90;3.00;;;;;;;;;;5030560;28;20036;-78
2021/08/06 01:54:53;;;;;;;7.70;3.47;;;;;;;;;;5029665;28;20032;-78
2021/08/06 01:57:19;;;;;;;4.68;3.00;;;;;;;;;;5030756;28;20043;-79
2021/08/06 01:59:46;;;;;;;5.30;3.03;;;;;;;;;;5033071;28;20112;-78
2021/08/06 02:02:13;;;;;;;5.43;3.35;;;;;;;;;;5029998;28;20071;-78
2021/08/06 02:04:38;;;;;;;4.43;2.80;;;;;;;;;;5028682;28;20038;-78
2021/08/06 02:07:04;;;;;;;4.68;2.63;;;;;;;;;;5030478;28;20041;-79
2021/08/06 02:09:30;;;;;;;4.50;2.70;;;;;;;;;;5026825;28;20039;-78
2021/08/06 02:11:55;;;;;;;3.85;2.28;;;;;;;;;;5022716;28;20121;-78
2021/08/06 02:14:21;;;;;;;4.53;2.55;;;;;;;;;;5034578;28;20030;-79
2021/08/06 02:16:49;;;;;;;3.90;2.55;;;;;;;;;;5027922;28;20103;-79
2021/08/06 02:19:17;;;;;;;4.63;2.72;;;;;;;;;;5034375;28;20104;-78
2021/08/06 02:21:46;;;;;;;5.53;2.90;;;;;;;;;;5029096;28;21618;-79
2021/08/06 02:24:13;;;;;;;4.43;2.67;;;;;;;;;;5024261;28;20025;-78
2021/08/06 02:26:42;;;;;;;5.60;2.80;;;;;;;;;;5028144;28;20048;-78
2021/08/06 02:29:11;;;;;;;4.82;2.70;;;;;;;;;;5028242;28;20057;-78
2021/08/06 02:31:37;;;;;;;4.20;2.70;;;;;;;;;;5025279;28;20025;-78
2021/08/06 02:34:03;;;;;;;5.45;2.70;;;;;;;;;;5032619;28;20022;-78
2021/08/06 02:36:29;;;;;;;6.47;2.90;;;;;;;;;;5027060;28;20362;-78
2021/08/06 02:38:59;;;;;;;4.88;2.92;;;;;;;;;;5029455;28;20546;-79
2021/08/06 02:41:25;;;;;;;4.07;2.53;;;;;;;;;;5026933;28;20421;-79
2021/08/06 02:43:50;;;;;;;6.07;3.05;;;;;;;;;;5029196;28;20017;-79
2021/08/06 02:46:16;;;;;;;3.50;2.60;;;;;;;;;;5023915;28;20040;-78
2021/08/06 02:48:41;;;;;;;4.63;2.65;;;;;;;;;;5031996;28;20490;-79
2021/08/06 02:51:07;;;;;;;5.78;3.00;;;;;;;;;;5027806;28;20039;-78
2021/08/06 02:53:32;;;;;;;5.32;2.83;;;;;;;;;;5027609;28;20048;-78
2021/08/06 02:55:58;;;;;;;4.85;3.30;;;;;;;;;;5030534;28;20030;-78
2021/08/06 02:58:24;;;;;;;4.93;2.70;;;;;;;;;;5031994;28;20060;-78
2021/08/06 03:00:49;;;;;;;4.45;3.00;;;;;;;;;;5028075;28;20049;-78
2021/08/06 03:03:15;;;;;;;5.53;3.30;;;;;;;;;;5031000;28;20037;-78
2021/08/06 03:05:41;;;;;;;5.18;3.20;;;;;;;;;;5013310;28;20041;-78
2021/08/06 03:08:06;;;;;;;4.93;2.80;;;;;;;;;;5029673;28;20111;-79
2021/08/06 03:10:33;;;;;;;4.38;2.88;;;;;;;;;;5024507;28;20041;-78
2021/08/06 03:12:59;;;;;;;4.35;3.10;;;;;;;;;;5028835;28;20488;-78
2021/08/06 03:15:25;;;;;;;5.35;3.15;;;;;;;;;;4997436;28;20034;-78
2021/08/06 03:17:50;;;;;;;4.57;3.20;;;;;;;;;;5028465;28;20033;-79
2021/08/06 03:20:22;;;;;;;5.10;3.00;;;;;;;;;;5033958;28;20488;-78
2021/08/06 03:22:49;;;;;;;5.38;2.65;;;;;;;;;;5028091;28;20025;-79
2021/08/06 03:25:15;;;;;;;4.18;2.47;;;;;;;;;;5023129;28;20030;-78
2021/08/06 03:27:41;;;;;;;5.60;2.70;;;;;;;;;;5023553;28;20022;-78
2021/08/06 03:30:10;;;;;;;4.20;2.65;;;;;;;;;;5026193;28;20040;-78
2021/08/06 03:32:36;;;;;;;4.45;2.40;;;;;;;;;;5028835;28;20030;-78
2021/08/06 03:35:02;;;;;;;4.28;2.30;;;;;;;;;;5029399;28;20038;-78
2021/08/06 03:37:28;;;;;;;4.00;2.42;;;;;;;;;;5031383;28;20025;-78
2021/08/06 03:39:53;;;;;;;3.45;2.10;;;;;;;;;;5027038;28;20025;-78
2021/08/06 03:42:19;;;;;;;4.20;2.30;;;;;;;;;;5012807;28;20057;-78
2021/08/06 03:44:44;;;;;;;3.03;2.00;;;;;;;;;;5011702;28;20501;-78
2021/08/06 03:47:10;;;;;;;3.50;2.17;;;;;;;;;;5006007;28;20033;-78
2021/08/06 03:49:35;;;;;;;3.83;2.08;;;;;;;;;;5023934;28;20069;-78
2021/08/06 03:52:01;;;;;;;4.72;2.00;;;;;;;;;;5030663;28;20025;-78
2021/08/06 03:54:26;;;;;;;2.67;2.10;;;;;;;;;;5027310;28;20034;-78
2021/08/06 03:56:52;;;;;;;4.85;1.77;;;;;;;;;;5029362;28;20029;-78
2021/08/06 03:59:17;;;;;;;3.38;1.90;;;;;;;;;;5023518;28;20046;-77
2021/08/06 04:01:43;;;;;;;3.75;1.98;;;;;;;;;;4998471;28;20413;-78
2021/08/06 04:04:08;;;;;;;2.85;1.70;;;;;;;;;;5034003;28;20032;-78
2021/08/06 04:06:34;;;;;;;2.80;1.80;;;;;;;;;;5023669;28;20033;-78
2021/08/06 04:09:00;;;;;;;3.85;1.52;;;;;;;;;;5028663;28;20028;-78
2021/08/06 04:11:25;;;;;;;3.53;1.75;;;;;;;;;;5028510;28;20120;-78
2021/08/06 04:13:51;;;;;;;2.83;1.67;;;;;;;;;;5030008;28;20068;-78
2021/08/06 04:16:17;;;;;;;3.58;1.60;;;;;;;;;;5027317;28;20363;-78
2021/08/06 04:18:42;;;;;;;3.72;1.92;;;;;;;;;;5030655;28;20037;-78
2021/08/06 04:21:07;;;;;;;3.22;1.83;;;;;;;;;;5026037;28;20367;-78
2021/08/06 04:23:33;;;;;;;3.33;1.60;;;;;;;;;;5025166;28;20025;-78
2021/08/06 04:25:58;;;;;;;3.83;1.90;;;;;;;;;;5027414;28;20029;-78
2021/08/06 04:28:24;;;;;;;3.85;1.90;;;;;;;;;;5011779;28;20083;-78
2021/08/06 04:30:49;;;;;;;3.97;1.90;;;;;;;;;;5029839;28;20377;-78
2021/08/06 04:33:15;;;;;;;2.50;1.73;;;;;;;;;;5026000;28;20033;-78
2021/08/06 04:35:40;;;;;;;3.33;1.63;;;;;;;;;;5010143;28;20487;-78
2021/08/06 04:38:06;;;;;;;3.05;1.92;;;;;;;;;;5030194;28;20116;-78
2021/08/06 04:40:31;;;;;;;3.78;1.90;;;;;;;;;;5012787;28;20040;-78
2021/08/06 04:42:57;;;;;;;3.50;1.85;;;;;;;;;;5022791;28;20025;-78
2021/08/06 04:45:23;;;;;;;2.60;1.60;;;;;;;;;;5025122;28;20117;-78
2021/08/06 04:47:50;;;;;;;2.05;1.50;;;;;;;;;;5023008;28;20029;-78
2021/08/06 04:50:20;;;;;;;4.00;1.80;;;;;;;;;;5034664;28;20473;-78
2021/08/06 04:52:47;;;;;;;8.80;2.00;;;;;;;;;;5020703;28;20034;-78
2021/08/06 04:55:13;;;;;;;2.80;1.35;;;;;;;;;;5047587;28;20121;-78
2021/08/06 04:57:38;;;;;;;3.28;1.80;;;;;;;;;;5002266;28;20717;-78
2021/08/06 05:00:06;;;;;;;3.20;1.80;;;;;;;;;;5030823;28;20044;-78
2021/08/06 05:02:31;;;;;;;3.13;1.80;;;;;;;;;;5030982;28;20534;-78
2021/08/06 05:04:57;;;;;;;3.60;1.80;;;;;;;;;;5028676;28;20029;-78
2021/08/06 05:07:22;;;;;;;3.30;1.88;;;;;;;;;;5032206;28;20048;-78
2021/08/06 05:09:48;;;;;;;3.17;1.83;;;;;;;;;;5036197;28;20033;-78
2021/08/06 05:12:14;;;;;;;6.60;1.50;;;;;;;;;;5017096;28;20029;-77
2021/08/06 05:14:40;;;;;;;2.40;1.70;;;;;;;;;;5032186;28;20032;-78
2021/08/06 05:17:10;;;;;;;3.97;1.60;;;;;;;;;;5029142;28;20041;-78
2021/08/06 05:19:36;;;;;;;3.60;1.70;;;;;;;;;;5028922;28;20036;-78
2021/08/06 05:22:02;;;;;;;2.75;1.63;;;;;;;;;;5029606;28;20037;-78
2021/08/06 05:24:27;;;;;;;2.70;1.60;;;;;;;;;;5033116;28;20039;-78
2021/08/06 05:26:52;;;;;;;2.63;1.70;;;;;;;;;;5029832;28;20025;-77
2021/08/06 05:29:18;;;;;;;2.92;1.35;;;;;;;;;;5026749;28;20030;-77
2021/08/06 05:31:43;;;;;;;2.80;1.40;;;;;;;;;;5010410;28;20037;-77
2021/08/06 05:34:09;;;;;;;2.33;1.50;;;;;;;;;;5012943;28;20370;-78
2021/08/06 05:36:34;;;;;;;2.42;1.50;;;;;;;;;;5028552;28;20030;-77
2021/08/06 05:38:59;;;;;;;3.65;1.70;;;;;;;;;;5029677;28;20033;-77
2021/08/06 05:41:25;;;;;;;2.80;1.50;;;;;;;;;;5033450;28;20041;-77
2021/08/06 05:43:50;;;;;;;2.13;1.60;;;;;;;;;;5029641;28;20101;-77
2021/08/06 05:46:16;;;;;;;1.83;1.30;;;;;;;;;;5031399;28;20026;-78
2021/08/06 05:48:41;;;;;;;2.20;1.50;;;;;;;;;;5005811;28;20025;-77
2021/08/06 05:51:07;;;;;;;2.60;1.45;;;;;;;;;;5029411;28;20052;-77
2021/08/06 05:53:32;;;;;;;2.05;1.63;;;;;;;;;;5031265;28;20112;-77
2021/08/06 05:55:59;;;;;;;2.80;1.58;;;;;;;;;;5026346;28;20045;-77
2021/08/06 05:58:25;;;;;;;2.20;1.63;;;;;;;;;;5045980;28;20042;-77
2021/08/06 06:00:50;;;;;;;3.72;1.75;;;;;;;;;;5026688;28;20116;-77
2021/08/06 06:03:17;;;;;;;3.22;1.83;;;;;;;;;;5029991;28;20029;-77
2021/08/06 06:05:43;;;;;;;2.80;2.08;;;;;;;;;;5028833;28;20049;-77
2021/08/06 06:08:09;;;;;;;3.50;2.00;;;;;;;;;;5011989;28;20643;-77
2021/08/06 06:10:34;;;;;;;3.38;2.00;;;;;;;;;;5029724;28;20095;-77
2021/08/06 06:12:59;;;;;;;2.88;2.05;;;;;;;;;;5013058;28;20029;-77
2021/08/06 06:15:25;;;;;;;3.25;2.28;;;;;;;;;;5029115;28;20413;-77
2021/08/06 06:17:50;;;;;;;2.75;2.10;;;;;;;;;;5028758;28;20037;-77
2021/08/06 06:20:16;;;;;;;3.15;2.20;;;;;;;;;;5025904;28;20125;-77
2021/08/06 06:22:42;;;;;;;3.45;2.30;;;;;;;;;;5026820;28;20029;-77
2021/08/06 06:25:08;;;;;;;3.10;2.15;;;;;;;;;;5030377;28;20038;-77
2021/08/06 06:27:45;;;;;;;3.00;2.10;;;;;;;;;;5009785;28;20042;-77
2021/08/06 06:30:11;;;;;;;3.33;2.17;;;;;;;;;;5026941;28;20836;-77
2021/08/06 06:32:36;;;;;;;2.83;2.20;;;;;;;;;;5026187;28;20068;-77
2021/08/06 06:35:01;;;;;;;2.97;2.20;;;;;;;;;;5021734;28;20401;-77
2021/08/06 06:37:27;;;;;;;3.80;2.60;;;;;;;;;;5023465;28;20048;-78
2021/08/06 06:39:52;;;;;;;3.75;2.50;;;;;;;;;;5016021;28;20037;-78
2021/08/06 06:42:18;;;;;;;4.13;2.78;;;;;;;;;;5029056;28;20022;-77
2021/08/06 06:44:43;;;;;;;3.22;2.80;;;;;;;;;;5026023;28;20084;-77
2021/08/06 06:47:08;;;;;;;4.25;3.25;;;;;;;;;;5005792;28;20184;-77
2021/08/06 06:49:34;;;;;;;7.72;3.42;;;;;;;;;;5029627;28;20061;-77
2021/08/06 06:51:59;;;;;;;4.38;3.15;;;;;;;;;;5027823;28;20029;-77
2021/08/06 06:54:25;;;;;;;4.30;3.30;;;;;;;;;;5012092;28;20053;-77
2021/08/06 06:56:50;;;;;;;4.05;3.13;;;;;;;;;;5026691;28;20046;-77
2021/08/06 06:59:15;;;;;;;4.35;3.25;;;;;;;;;;5029570;28;20493;-77
2021/08/06 07:01:41;;;;;;;3.90;3.50;;;;;;;;;;5024912;28;20042;-77
2021/08/06 07:04:06;;;;;;;5.65;5.10;;;;;;;;;;5032835;28;20032;-77
2021/08/06 07:06:31;;;;;;;5.10;4.20;;;;;;;;;;5032963;28;20033;-77
2021/08/06 07:08:57;;;;;;;6.60;4.47;;;;;;;;;;5023503;28;20053;-77
2021/08/06 07:11:22;;;;;;;5.95;4.30;;;;;;;;;;5024115;28;20503;-77
2021/08/06 07:13:48;;;;;;;5.68;4.13;;;;;;;;;;5028187;28;20028;-77
2021/08/06 07:16:13;;;;;;;8.15;4.40;;;;;;;;;;5032194;28;20060;-78
2021/08/06 07:18:38;;;;;;;5.32;4.40;;;;;;;;;;5026922;28;20533;-77
2021/08/06 07:21:05;;;;;;;6.38;4.20;;;;;;;;;;5026075;28;20440;-78
2021/08/06 07:23:30;;;;;;;5.80;4.20;;;;;;;;;;5012944;28;20029;-78
2021/08/06 07:25:56;;;;;;;4.43;3.80;;;;;;;;;;5027202;28;20049;-77
2021/08/06 07:28:22;;;;;;;6.10;4.25;;;;;;;;;;5028106;28;20397;-77
2021/08/06 07:30:47;;;;;;;7.28;4.55;;;;;;;;;;5014067;28;20037;-78
2021/08/06 07:33:13;;;;;;;8.57;4.70;;;;;;;;;;5025301;28;20036;-77
2021/08/06 07:35:39;;;;;;;6.30;4.40;;;;;;;;;;5032232;28;20400;-78
2021/08/06 07:38:04;;;;;;;6.82;4.80;;;;;;;;;;5031799;28;20392;-78
2021/08/06 07:40:30;;;;;;;5.72;4.47;;;;;;;;;;5034097;28;20035;-78
2021/08/06 07:42:55;;;;;;;5.63;4.30;;;;;;;;;;5030466;28;20026;-78
2021/08/06 07:45:22;;;;;;;4.95;4.45;;;;;;;;;;5032594;28;20351;-78
2021/08/06 07:47:48;;;;;;;6.15;4.95;;;;;;;;;;5033999;28;20500;-77
2021/08/06 07:50:14;;;;;;;7.75;4.70;;;;;;;;;;5033847;28;20033;-78
2021/08/06 07:52:40;;;;;;;6.93;4.70;;;;;;;;;;5032477;28;20029;-77
2021/08/06 07:55:08;;;;;;;6.20;4.53;;;;;;;;;;5029937;28;20025;-78
2021/08/06 07:57:33;;;;;;;8.45;4.50;;;;;;;;;;5024295;28;20068;-78
2021/08/06 07:59:59;;;;;;;6.43;3.90;;;;;;;;;;5020303;28;20100;-77
2021/08/06 08:02:25;;;;;;;6.50;4.40;;;;;;;;;;5032278;28;20082;-77
2021/08/06 08:04:50;;;;;;;6.03;4.22;;;;;;;;;;5023604;28;20035;-78
2021/08/06 08:07:16;;;;;;;6.03;4.40;;;;;;;;;;5009788;28;20717;-77
2021/08/06 08:09:41;;;;;;;5.47;3.90;;;;;;;;;;5026657;28;20034;-78
2021/08/06 08:12:07;;;;;;;6.40;3.55;;;;;;;;;;5029874;28;20145;-78
2021/08/06 08:14:33;;;;;;;5.82;3.55;;;;;;;;;;5026331;28;20436;-78
2021/08/06 08:16:59;;;;;;;4.65;3.85;;;;;;;;;;5031164;28;20081;-78
2021/08/06 08:19:25;;;;;;;6.00;3.72;;;;;;;;;;5025135;28;20042;-78
2021/08/06 08:21:51;;;;;;;6.15;4.43;;;;;;;;;;5011914;28;20079;-78
2021/08/06 08:24:16;;;;;;;6.55;5.07;;;;;;;;;;5023949;28;20026;-77
2021/08/06 08:26:42;;;;;;;8.98;4.55;;;;;;;;;;5024035;28;20140;-77
2021/08/06 08:29:09;;;;;;;8.15;5.00;;;;;;;;;;5007935;28;20091;-77
2021/08/06 08:31:34;;;;;;;7.00;5.00;;;;;;;;;;5039566;28;20306;-78
2021/08/06 08:34:00;;;;;;;10.63;5.18;;;;;;;;;;5019698;28;20030;-77
2021/08/06 08:36:26;;;;;;;5.85;4.38;;;;;;;;;;5009359;28;20091;-78
2021/08/06 08:38:52;;;;;;;7.68;4.18;;;;;;;;;;5023387;28;20029;-77
2021/08/06 08:41:17;;;;;;;6.20;4.05;;;;;;;;;;5019152;28;20127;-77
2021/08/06 08:43:43;;;;;;;6.68;4.20;;;;;;;;;;5022593;28;20040;-77
2021/08/06 08:46:10;;;;;;;5.88;3.55;;;;;;;;;;5014048;28;20029;-77
2021/08/06 08:48:36;;;;;;;9.02;3.60;;;;;;;;;;5017942;28;20075;-78
2021/08/06 08:51:03;;;;;;;5.82;3.30;;;;;;;;;;5027424;28;20028;-77
2021/08/06 08:53:28;;;;;;;6.63;3.45;;;;;;;;;;5019273;28;20045;-77
2021/08/06 08:55:54;;;;;;;5.13;3.10;;;;;;;;;;5017640;28;20034;-78
2021/08/06 08:58:20;;;;;;;5.22;3.63;;;;;;;;;;5023724;28;20059;-78
2021/08/06 09:00:45;;;;;;;5.50;3.65;;;;;;;;;;5025162;28;20112;-77
2021/08/06 09:03:34;;;;;;;5.18;3.90;;;;;;;;;;4992372;28;20095;-78
2021/08/06 09:05:59;;;;;;;8.88;3.80;;;;;;;;;;5021252;28;20100;-78
2021/08/06 09:08:25;;;;;;;5.22;3.38;;;;;;;;;;5022763;28;20501;-77
2021/08/06 09:10:50;;;;;;;6.30;3.40;;;;;;;;;;5024458;28;20033;-78
2021/08/06 09:13:21;;;;;;;7.72;3.65;;;;;;;;;;5021793;28;20058;-78
2021/08/06 09:15:59;;;;;;;5.75;3.25;;;;;;;;;;5015914;28;20428;-78
2021/08/06 09:18:36;;;;;;;8.68;3.70;;;;;;;;;;5015384;28;20037;-78
2021/08/06 09:21:03;;;;;;;11.98;4.07;;;;;;;;;;5023245;28;20124;-78
2021/08/06 09:23:56;;;;;;;6.90;3.63;;;;;;;;;;5023143;28;20098;-77
2021/08/06 09:26:30;;;;;;;4.57;3.30;;;;;;;;;;5010408;28;20140;-78
2021/08/06 09:29:07;;;;;;;4.78;3.45;;;;;;;;;;5019928;28;20120;-78
2021/08/06 09:31:57;;;;;;;6.35;3.17;;;;;;;;;;5027244;28;20481;-78
2021/08/06 09:34:25;;;;;;;5.38;2.92;;;;;;;;;;5026288;28;20386;-78
2021/08/06 09:37:00;;;;;;;4.85;2.80;;;;;;;;;;5024587;28;20468;-78
2021/08/06 09:39:31;;;;;;;7.07;2.50;;;;;;;;;;5024978;28;20347;-78
2021/08/06 09:41:57;;;;;;;4.47;2.45;;;;;;;;;;5021343;28;20030;-78
2021/08/06 09:44:25;;;;;;;5.10;2.47;;;;;;;;;;5019799;28;20052;-78
2021/08/06 09:46:51;;;;;;;4.97;2.40;;;;;;;;;;5032626;28;20830;-77
2021/08/06 09:49:18;;;;;;;4.30;1.90;;;;;;;;;;5027937;28;20565;-78
2021/08/06 09:51:46;;;;;;;5.18;2.00;;;;;;;;;;5021667;28;20034;-78
2021/08/06 09:54:20;;;;;;;3.63;1.50;;;;;;;;;;5021490;28;20107;-77
2021/08/06 09:56:46;;;;;;;2.75;1.50;;;;;;;;;;5042708;28;20037;-78
2021/08/06 09:59:12;;;;;;;4.05;1.80;;;;;;;;;;5024282;28;20038;-77
2021/08/06 10:01:37;;;;;;;3.95;1.60;;;;;;;;;;5019679;28;20044;-78
2021/08/06 10:04:15;;;;;;;2.95;1.70;;;;;;;;;;5025488;28;20030;-78
2021/08/06 10:07:01;;;;;;;5.20;1.85;;;;;;;;;;5009690;28;20041;-78
2021/08/06 10:09:27;;;;;;;3.85;1.92;;;;;;;;;;5018406;28;20381;-77
2021/08/06 10:11:52;;;;;;;3.35;1.80;;;;;;;;;;5019793;28;20040;-78
2021/08/06 10:14:19;;;;;;;3.80;1.65;;;;;;;;;;5028686;28;20037;-78
2021/08/06 10:16:45;;;;;;;3.38;1.45;;;;;;;;;;5023149;28;20028;-78
2021/08/06 10:19:11;;;;;;;2.85;1.65;;;;;;;;;;5021763;28;20041;-77
2021/08/06 10:21:36;;;;;;;4.90;1.65;;;;;;;;;;5022450;28;20045;-78
2021/08/06 10:24:02;;;;;;;5.03;1.80;;;;;;;;;;5008308;28;20049;-78
2021/08/06 10:26:27;;;;;;;3.10;1.73;;;;;;;;;;5026193;28;20044;-78
2021/08/06 10:28:53;;;;;;;2.67;1.50;;;;;;;;;;5012205;28;20040;-78
2021/08/06 10:31:21;;;;;;;5.93;1.70;;;;;;;;;;5031726;28;20433;-78
2021/08/06 10:34:06;;;;;;;5.70;1.80;;;;;;;;;;5006191;28;20037;-78
2021/08/06 10:36:39;;;;;;;3.65;1.70;;;;;;;;;;5014472;28;20037;-78
2021/08/06 10:39:04;;;;;;;2.97;1.52;;;;;;;;;;5022406;28;20036;-78
2021/08/06 10:41:49;;;;;;;3.22;1.45;;;;;;;;;;5024800;28;20126;-78
2021/08/06 10:44:15;;;;;;;4.63;1.55;;;;;;;;;;5018519;28;20033;-78
2021/08/06 10:47:05;;;;;;;5.00;1.70;;;;;;;;;;5022068;28;20037;-78
2021/08/06 10:49:32;;;;;;;5.05;1.75;;;;;;;;;;5024820;28;20123;-78
2021/08/06 10:52:19;;;;;;;2.35;1.67;;;;;;;;;;5007764;28;20037;-78
2021/08/06 10:54:45;;;;;;;5.78;1.88;;;;;;;;;;5025373;28;20033;-78
2021/08/06 10:57:26;;;;;;;4.53;2.10;;;;;;;;;;5023957;28;20040;-78
2021/08/06 10:59:52;;;;;;;3.00;1.90;;;;;;;;;;5035721;28;20057;-77
2021/08/06 11:02:33;;;;;;;3.65;1.80;;;;;;;;;;5017735;28;20026;-78
2021/08/06 11:04:59;;;;;;;6.35;1.88;;;;;;;;;;5022615;28;20466;-78
2021/08/06 11:07:34;;;;;;;5.18;2.00;;;;;;;;;;5018050;28;20026;-78
2021/08/06 11:10:00;;;;;;;4.20;2.38;;;;;;;;;;5021248;28;20477;-78
2021/08/06 11:12:33;;;;;;;3.50;1.70;;;;;;;;;;5025245;28;20040;-79
2021/08/06 11:15:07;;;;;;;3.33;1.65;;;;;;;;;;5002208;28;20152;-78
2021/08/06 11:17:36;;;;;;;5.43;1.35;;;;;;;;;;5021660;28;20509;-78
2021/08/06 11:20:12;;;;;;;3.08;1.63;;;;;;;;;;5001910;28;20030;-78
2021/08/06 11:22:49;;;;;;;3.30;1.50;;;;;;;;;;5024634;28;20029;-78
2021/08/06 11:25:24;;;;;;;6.00;1.38;;;;;;;;;;5015436;28;20736;-78
2021/08/06 11:28:00;;;;;;;5.47;1.33;;;;;;;;;;5023750;28;20035;-78
2021/08/06 11:30:35;;;;;;;7.07;1.50;;;;;;;;;;5025750;28;20055;-78
2021/08/06 11:33:04;;;;;;;3.28;1.40;;;;;;;;;;5015111;28;20034;-78
2021/08/06 11:35:38;;;;;;;4.30;1.40;;;;;;;;;;5021386;28;20112;-78
2021/08/06 11:38:16;;;;;;;2.90;1.63;;;;;;;;;;5022447;28;20029;-78
2021/08/06 11:40:49;;;;;;;3.65;1.52;;;;;;;;;;5022536;28;20898;-78
2021/08/06 11:43:21;;;;;;;4.32;1.60;;;;;;;;;;5028667;28;20033;-78
2021/08/06 11:45:49;;;;;;;4.25;1.65;;;;;;;;;;5024427;28;20461;-78
2021/08/06 11:48:14;;;;;;;7.80;1.63;;;;;;;;;;5021777;28;20062;-79
2021/08/06 11:50:54;;;;;;;3.15;1.65;;;;;;;;;;5020524;28;20774;-78
2021/08/06 11:53:25;;;;;;;5.40;1.83;;;;;;;;;;5014676;28;20025;-79
2021/08/06 11:55:58;;;;;;;3.80;1.60;;;;;;;;;;5015578;28;20049;-79
2021/08/06 11:58:37;;;;;;;4.38;1.80;;;;;;;;;;5024980;28;20061;-78
2021/08/06 12:01:05;;;;;;;4.07;1.90;;;;;;;;;;5021293;28;20037;-78
2021/08/06 12:03:41;;;;;;;4.38;1.77;;;;;;;;;;5034112;28;20040;-79
2021/08/06 12:06:07;;;;;;;2.67;1.42;;;;;;;;;;5026492;28;20030;-78
2021/08/06 12:08:34;;;;;;;4.47;1.35;;;;;;;;;;5023788;28;20041;-78
2021/08/06 12:11:05;;;;;;;3.55;1.20;;;;;;;;;;5030008;28;20035;-78
2021/08/06 12:13:38;;;;;;;2.70;1.35;;;;;;;;;;5019684;28;20034;-78
2021/08/06 12:16:06;;;;;;;2.60;1.60;;;;;;;;;;5026713;28;20045;-78
2021/08/06 12:18:35;;;;;;;1.77;1.40;;;;;;;;;;5020752;28;20033;-78
2021/08/06 12:21:08;;;;;;;5.28;1.80;;;;;;;;;;5018074;28;20064;-79
2021/08/06 12:23:35;;;;;;;3.05;1.55;;;;;;;;;;5029252;28;20063;-78
2021/08/06 12:26:12;;;;;;;3.78;1.55;;;;;;;;;;5021996;28;20034;-78
2021/08/06 12:28:46;;;;;;;3.85;1.92;;;;;;;;;;5041832;28;20025;-79
2021/08/06 12:31:21;;;;;;;3.08;1.70;;;;;;;;;;5018636;28;20092;-79
2021/08/06 12:34:02;;;;;;;3.45;1.60;;;;;;;;;;5031391;28;20128;-78
2021/08/06 12:36:28;;;;;;;2.97;1.70;;;;;;;;;;5024506;28;20506;-79
2021/08/06 12:39:14;;;;;;;3.45;1.60;;;;;;;;;;5027052;28;20033;-79
2021/08/06 12:41:42;;;;;;;2.90;1.70;;;;;;;;;;5029662;28;20033;-78
2021/08/06 12:44:19;;;;;;;3.92;1.20;;;;;;;;;;5020989;28;20053;-79
2021/08/06 12:47:20;;;;;;;5.13;1.40;;;;;;;;;;5028815;28;20623;-79
2021/08/06 12:49:56;;;;;;;3.00;1.10;;;;;;;;;;4990083;28;20180;-78
2021/08/06 12:52:24;;;;;;;3.63;1.20;;;;;;;;;;5023204;28;20042;-79
2021/08/06 12:54:55;;;;;;;4.75;1.10;;;;;;;;;;5031791;28;20096;-79
2021/08/06 12:57:39;;;;;;;3.67;1.10;;;;;;;;;;5030129;28;20028;-79
2021/08/06 13:00:33;;;;;;;4.68;1.40;;;;;;;;;;5014890;28;20060;-79
2021/08/06 13:03:07;;;;;;;6.25;1.40;;;;;;;;;;5039666;28;20110;-80
2021/08/06 13:05:48;;;;;;;3.20;1.30;;;;;;;;;;5025650;28;20480;-79
2021/08/06 13:08:32;;;;;;;2.40;1.23;;;;;;;;;;5025163;28;20737;-80
2021/08/06 13:11:03;;;;;;;2.90;1.50;;;;;;;;;;5024677;28;20057;-79
2021/08/06 13:13:32;;;;;;;3.35;1.40;;;;;;;;;;5024445;28;20491;-79
2021/08/06 13:15:58;;;;;;;4.18;1.50;;;;;;;;;;5022641;28;20030;-79
2021/08/06 13:18:24;;;;;;;2.67;1.23;;;;;;;;;;5025483;28;20033;-79
2021/08/06 13:20:50;;;;;;;6.70;1.35;;;;;;;;;;5033024;28;20087;-79
2021/08/06 13:23:15;;;;;;;2.03;1.40;;;;;;;;;;5015058;28;20056;-79
2021/08/06 13:25:42;;;;;;;4.10;1.42;;;;;;;;;;5022543;28;20466;-79
2021/08/06 13:28:08;;;;;;;4.35;1.50;;;;;;;;;;5028905;28;20050;-79
2021/08/06 13:30:35;;;;;;;3.00;1.40;;;;;;;;;;5013121;28;20932;-79
2021/08/06 13:33:10;;;;;;;3.40;1.35;;;;;;;;;;5034652;28;20029;-78
2021/08/06 13:35:35;;;;;;;3.30;1.10;;;;;;;;;;5028540;28;20033;-79
2021/08/06 13:38:01;;;;;;;2.95;1.20;;;;;;;;;;5037046;28;20331;-80
2021/08/06 13:40:28;;;;;;;1.95;1.00;;;;;;;;;;5029114;28;20112;-80
2021/08/06 13:42:54;;;;;;;3.22;1.33;;;;;;;;;;5033399;28;20540;-79
2021/08/06 13:45:20;;;;;;;3.88;1.23;;;;;;;;;;5027302;28;20044;-79
2021/08/06 13:47:45;;;;;;;2.72;1.20;;;;;;;;;;5009831;28;20927;-79
2021/08/06 13:50:11;;;;;;;2.25;1.10;;;;;;;;;;5025888;28;20033;-79
2021/08/06 13:52:37;;;;;;;2.97;1.10;;;;;;;;;;5027629;28;20052;-78
2021/08/06 13:55:04;;;;;;;2.88;1.20;;;;;;;;;;5033387;28;20048;-79
2021/08/06 13:57:31;;;;;;;5.65;0.98;;;;;;;;;;5034437;28;20032;-79
2021/08/06 13:59:57;;;;;;;1.75;0.85;;;;;;;;;;5022515;28;20520;-79
2021/08/06 14:02:22;;;;;;;6.68;1.23;;;;;;;;;;5027631;28;20026;-79
2021/08/06 14:04:48;;;;;;;2.83;1.00;;;;;;;;;;5031141;28;20144;-79
2021/08/06 14:07:16;;;;;;;4.10;0.90;;;;;;;;;;5027809;28;20033;-79
2021/08/06 14:09:44;;;;;;;4.15;1.10;;;;;;;;;;5013900;28;20033;-79
2021/08/06 14:12:09;;;;;;;2.95;1.10;;;;;;;;;;5021447;28;20116;-79
2021/08/06 14:14:35;;;;;;;2.97;1.00;;;;;;;;;;5029125;28;20117;-79
2021/08/06 14:17:00;;;;;;;2.05;1.05;;;;;;;;;;5032812;28;20025;-79
2021/08/06 14:19:26;;;;;;;2.30;0.70;;;;;;;;;;5025628;28;20520;-79
2021/08/06 14:21:51;;;;;;;1.83;0.60;;;;;;;;;;5024525;28;20052;-79
2021/08/06 14:24:17;;;;;;;3.15;0.82;;;;;;;;;;5026300;28;20032;-79
2021/08/06 14:26:44;;;;;;;3.15;0.60;;;;;;;;;;5031536;28;20037;-79
2021/08/06 14:29:10;;;;;;;1.50;0.47;;;;;;;;;;5022156;28;20025;-80
2021/08/06 14:31:35;;;;;;;1.65;0.45;;;;;;;;;;5012440;28;20876;-79
2021/08/06 14:34:01;;;;;;;1.02;0.47;;;;;;;;;;5029524;28;20044;-79
2021/08/06 14:36:26;;;;;;;2.30;0.70;;;;;;;;;;5024105;28;20049;-79
2021/08/06 14:38:52;;;;;;;8.52;1.50;;;;;;;;;;5023944;28;20112;-79
2021/08/06 14:41:17;;;;;;;5.22;1.20;;;;;;;;;;5009650;28;20539;-79
2021/08/06 14:43:43;;;;;;;4.88;1.30;;;;;;;;;;5019729;28;20036;-79
2021/08/06 14:46:08;;;;;;;5.05;1.27;;;;;;;;;;5022416;28;20372;-79
2021/08/06 14:48:35;;;;;;;4.07;1.35;;;;;;;;;;5020086;28;20049;-79